Time;durP1;ratioP1;P1;durP2;ratioP2;P2;SDS_P1;SDS_P2;PMS_P1;PMS_P2;Temp;Humidity;BMP_temperature;BMP_pressure;BME280_temperature;BME280_humidity;BME280_pressure;Samples;Min_cycle;Max_cycle;Signal;HPM_P1;HPM_P2
2024/02/21 00:00:17;;;;;;;;;;;;;;;;;;5087678;28;19927;-68
2024/02/21 00:02:42;;;;;;;;;;;;;;;;;;5068267;28;19916;-70
2024/02/21 00:05:10;;;;;;;;;;;;;;;;;;5072619;28;20891;-72
2024/02/21 00:07:35;;;;;;;;;;;;;;;;;;5070054;28;19926;-73
2024/02/21 00:10:01;;;;;;;;;;;;;;;;;;5086558;28;20034;-71
2024/02/21 00:12:26;;;;;;;;;;;;;;;;;;5086145;28;20048;-70
2024/02/21 00:14:51;;;;;;;;;;;;;;;;;;5070720;28;20346;-72
2024/02/21 00:17:17;;;;;;;;;;;;;;;;;;5071377;28;20287;-71
2024/02/21 00:19:42;;;;;;;;;;;;;;;;;;5086894;28;20283;-70
2024/02/21 00:22:08;;;;;;;;;;;;;;;;;;5071407;28;19915;-70
2024/02/21 00:24:33;;;;;;;;;;;;;;;;;;5072674;28;20571;-72
2024/02/21 00:26:58;;;;;;;;;;;;;;;;;;5085798;28;20366;-71
2024/02/21 00:29:24;;;;;;;;;;;;;;;;;;5086818;28;20281;-71
2024/02/21 00:31:50;;;;;;;;;;;;;;;;;;5066430;28;20401;-73
2024/02/21 00:34:16;;;;;;;;;;;;;;;;;;5087800;28;19911;-72
2024/02/21 00:36:41;;;;;;;;;;;;;;;;;;5088448;28;19923;-71
2024/02/21 00:39:06;;;;;;;;;;;;;;;;;;5085856;28;20497;-70
2024/02/21 00:41:31;;;;;;;;;;;;;;;;;;5069384;28;20390;-69
2024/02/21 00:43:57;;;;;;;;;;;;;;;;;;5085983;28;19924;-71
2024/02/21 00:46:25;;;;;;;;;;;;;;;;;;5071112;28;19916;-71
2024/02/21 00:48:50;;;;;;;;;;;;;;;;;;5086925;28;19920;-71
2024/02/21 00:51:18;;;;;;;;;;;;;;;;;;5069593;28;20340;-70
2024/02/21 00:53:43;;;;;;;;;;;;;;;;;;5086604;28;19915;-70
2024/02/21 00:56:09;;;;;;;;;;;;;;;;;;5071235;28;20302;-70
2024/02/21 00:58:34;;;;;;;;;;;;;;;;;;5087391;28;19931;-72
2024/02/21 01:00:59;;;;;;;;;;;;;;;;;;5073398;28;19919;-71
2024/02/21 01:03:25;;;;;;;;;;;;;;;;;;5072975;28;20031;-71
2024/02/21 01:05:50;;;;;;;;;;;;;;;;;;5070286;28;19916;-71
2024/02/21 01:08:15;;;;;;;;;;;;;;;;;;5075520;28;19916;-73
2024/02/21 01:10:41;;;;;;;;;;;;;;;;;;5088581;28;19920;-70
2024/02/21 01:13:08;;;;;;;;;;;;;;;;;;5075283;28;19916;-71
2024/02/21 01:15:36;;;;;;;;;;;;;;;;;;5090937;28;19916;-70
2024/02/21 01:18:05;;;;;;;;;;;;;;;;;;5071944;28;20402;-71
2024/02/21 01:20:30;;;;;;;;;;;;;;;;;;5090686;28;19919;-72
2024/02/21 01:22:55;;;;;;;;;;;;;;;;;;5059480;28;19916;-71
2024/02/21 01:25:21;;;;;;;;;;;;;;;;;;5055949;28;19916;-70
2024/02/21 01:27:46;;;;;;;;;;;;;;;;;;5089577;28;19931;-70
2024/02/21 01:30:14;;;;;;;;;;;;;;;;;;5074433;28;19916;-70
2024/02/21 01:32:40;;;;;;;;;;;;;;;;;;5069119;28;20012;-71
2024/02/21 01:35:12;;;;;;;;;;;;;;;;;;5086759;28;19976;-75
2024/02/21 01:37:40;;;;;;;;;;;;;;;;;;5080018;28;20051;-71
2024/02/21 01:40:06;;;;;;;;;;;;;;;;;;5087953;28;20279;-73
2024/02/21 01:42:31;;;;;;;;;;;;;;;;;;5088605;28;19969;-71
2024/02/21 01:45:01;;;;;;;;;;;;;;;;;;5073397;28;19920;-72
2024/02/21 01:47:26;;;;;;;;;;;;;;;;;;5058171;28;20378;-74
2024/02/21 01:49:56;;;;;;;;;;;;;;;;;;5071401;28;19920;-72
2024/02/21 01:52:21;;;;;;;;;;;;;;;;;;5074498;28;19920;-73
2024/02/21 01:54:47;;;;;;;;;;;;;;;;;;5072705;28;19970;-72
2024/02/21 01:57:12;;;;;;;;;;;;;;;;;;5089018;28;19942;-72
2024/02/21 01:59:37;;;;;;;;;;;;;;;;;;5089513;28;20092;-75
2024/02/21 02:02:04;;;;;;;;;;;;;;;;;;5071818;28;19916;-73
2024/02/21 02:04:31;;;;;;;;;;;;;;;;;;5071084;28;20607;-77
2024/02/21 02:06:57;;;;;;;;;;;;;;;;;;5058981;28;19915;-75
2024/02/21 02:09:23;;;;;;;;;;;;;;;;;;5072946;28;19941;-72
2024/02/21 02:11:49;;;;;;;;;;;;;;;;;;5073100;28;19920;-71
2024/02/21 02:14:17;;;;;;;;;;;;;;;;;;5087075;28;19954;-74
2024/02/21 02:16:43;;;;;;;;;;;;;;;;;;5072184;28;19920;-73
2024/02/21 02:19:12;;;;;;;;;;;;;;;;;;5090327;28;20037;-74
2024/02/21 02:21:37;;;;;;;;;;;;;;;;;;5091688;28;19928;-76
2024/02/21 02:24:04;;;;;;;;;;;;;;;;;;5090149;28;20279;-72
2024/02/21 02:26:30;;;;;;;;;;;;;;;;;;5058240;28;19912;-76
2024/02/21 02:28:55;;;;;;;;;;;;;;;;;;5091182;28;19919;-78
2024/02/21 02:31:20;;;;;;;;;;;;;;;;;;5073826;28;20354;-79
2024/02/21 02:33:45;;;;;;;;;;;;;;;;;;5060337;28;19922;-79
2024/02/21 02:36:11;;;;;;;;;;;;;;;;;;5092429;28;19919;-77
2024/02/21 02:38:36;;;;;;;;;;;;;;;;;;5082340;28;19928;-75
2024/02/21 02:41:04;;;;;;;;;;;;;;;;;;5081530;28;19964;-77
2024/02/21 02:43:29;;;;;;;;;;;;;;;;;;5078606;28;19912;-74
2024/02/21 02:45:58;;;;;;;;;;;;;;;;;;5077392;28;19920;-76
2024/02/21 02:48:23;;;;;;;;;;;;;;;;;;5075756;28;20347;-74
2024/02/21 02:50:52;;;;;;;;;;;;;;;;;;5095591;28;19922;-73
2024/02/21 02:53:17;;;;;;;;;;;;;;;;;;5093481;28;19920;-73
2024/02/21 02:55:42;;;;;;;;;;;;;;;;;;5094861;28;19920;-75
2024/02/21 02:58:08;;;;;;;;;;;;;;;;;;5094680;28;20022;-74
2024/02/21 03:00:36;;;;;;;;;;;;;;;;;;5076078;28;19912;-77
2024/02/21 03:03:02;;;;;;;;;;;;;;;;;;5093357;28;19919;-77
2024/02/21 03:05:28;;;;;;;;;;;;;;;;;;5073396;28;20394;-74
2024/02/21 03:07:53;;;;;;;;;;;;;;;;;;5094104;28;19970;-75
2024/02/21 03:10:19;;;;;;;;;;;;;;;;;;5076227;28;20387;-75
2024/02/21 03:12:44;;;;;;;;;;;;;;;;;;5090309;28;20002;-74
2024/02/21 03:15:09;;;;;;;;;;;;;;;;;;5074603;28;19915;-73
2024/02/21 03:17:35;;;;;;;;;;;;;;;;;;5091242;28;20469;-75
2024/02/21 03:20:00;;;;;;;;;;;;;;;;;;5088388;28;19994;-74
2024/02/21 03:22:25;;;;;;;;;;;;;;;;;;5072634;28;19916;-74
2024/02/21 03:24:51;;;;;;;;;;;;;;;;;;5087531;28;19915;-77
2024/02/21 03:27:16;;;;;;;;;;;;;;;;;;5089667;28;20006;-74
2024/02/21 03:29:41;;;;;;;;;;;;;;;;;;5073188;28;20018;-74
2024/02/21 03:32:06;;;;;;;;;;;;;;;;;;5070999;28;19988;-73
2024/02/21 03:34:34;;;;;;;;;;;;;;;;;;5089678;28;19919;-73
2024/02/21 03:37:00;;;;;;;;;;;;;;;;;;5075095;28;19924;-73
2024/02/21 03:39:25;;;;;;;;;;;;;;;;;;5075451;28;19927;-74
2024/02/21 03:41:51;;;;;;;;;;;;;;;;;;5072557;28;19916;-74
2024/02/21 03:44:19;;;;;;;;;;;;;;;;;;5088029;28;20011;-74
2024/02/21 03:46:44;;;;;;;;;;;;;;;;;;5072164;28;19995;-74
2024/02/21 03:49:09;;;;;;;;;;;;;;;;;;5091592;28;20366;-74
2024/02/21 03:51:35;;;;;;;;;;;;;;;;;;5091654;28;20489;-73
2024/02/21 03:54:00;;;;;;;;;;;;;;;;;;5073661;28;20160;-73
2024/02/21 03:56:25;;;;;;;;;;;;;;;;;;5073930;28;19927;-73
2024/02/21 03:58:51;;;;;;;;;;;;;;;;;;5088565;28;19911;-72
2024/02/21 04:01:18;;;;;;;;;;;;;;;;;;5075986;28;19916;-73
2024/02/21 04:03:43;;;;;;;;;;;;;;;;;;5070904;28;20482;-75
2024/02/21 04:06:09;;;;;;;;;;;;;;;;;;5089742;28;20011;-74
2024/02/21 04:08:35;;;;;;;;;;;;;;;;;;5089170;28;20371;-79
2024/02/21 04:11:00;;;;;;;;;;;;;;;;;;5092653;28;19920;-76
2024/02/21 04:13:25;;;;;;;;;;;;;;;;;;5059508;28;19916;-74
2024/02/21 04:15:54;;;;;;;;;;;;;;;;;;5059082;28;20738;-75
2024/02/21 04:21:13;;;;;;;;;;;;;;;;;;5074234;28;19923;-74
2024/02/21 04:23:38;;;;;;;;;;;;;;;;;;5088339;28;19919;-73
2024/02/21 04:26:03;;;;;;;;;;;;;;;;;;5059674;28;19967;-76
2024/02/21 04:28:29;;;;;;;;;;;;;;;;;;5073384;28;20457;-74
2024/02/21 04:30:56;;;;;;;;;;;;;;;;;;5089731;28;20290;-75
2024/02/21 04:33:21;;;;;;;;;;;;;;;;;;5090152;28;20504;-74
2024/02/21 04:35:48;;;;;;;;;;;;;;;;;;5071721;28;19924;-73
2024/02/21 04:38:14;;;;;;;;;;;;;;;;;;5077158;28;20291;-76
2024/02/21 04:40:40;;;;;;;;;;;;;;;;;;5076020;28;19923;-74
2024/02/21 04:43:05;;;;;;;;;;;;;;;;;;5075471;28;19941;-76
2024/02/21 04:45:30;;;;;;;;;;;;;;;;;;5076077;28;19946;-74
2024/02/21 04:47:56;;;;;;;;;;;;;;;;;;5060969;28;19915;-75
2024/02/21 04:50:21;;;;;;;;;;;;;;;;;;5092189;28;19916;-74
2024/02/21 04:52:46;;;;;;;;;;;;;;;;;;5093327;28;19927;-74
2024/02/21 04:55:12;;;;;;;;;;;;;;;;;;5072300;28;19920;-75
2024/02/21 04:57:39;;;;;;;;;;;;;;;;;;5089419;28;19950;-75
2024/02/21 05:00:05;;;;;;;;;;;;;;;;;;5071349;28;19939;-75
2024/02/21 05:02:30;;;;;;;;;;;;;;;;;;5090785;28;20050;-73
2024/02/21 05:04:58;;;;;;;;;;;;;;;;;;5092071;28;19934;-74
2024/02/21 05:07:23;;;;;;;;;;;;;;;;;;5058887;28;20257;-75
2024/02/21 05:09:49;;;;;;;;;;;;;;;;;;5091799;28;19927;-76
2024/02/21 05:12:14;;;;;;;;;;;;;;;;;;5089363;28;19920;-77
2024/02/21 05:14:40;;;;;;;;;;;;;;;;;;5076069;28;20439;-75
2024/02/21 05:17:06;;;;;;;;;;;;;;;;;;5073080;28;19958;-76
2024/02/21 05:19:31;;;;;;;;;;;;;;;;;;5091817;28;20013;-76
2024/02/21 05:21:56;;;;;;;;;;;;;;;;;;5089075;28;20375;-77
2024/02/21 05:24:23;;;;;;;;;;;;;;;;;;5089333;28;19916;-75
2024/02/21 05:26:48;;;;;;;;;;;;;;;;;;5080757;28;19943;-74
2024/02/21 05:29:14;;;;;;;;;;;;;;;;;;5081871;28;19916;-74
2024/02/21 05:31:39;;;;;;;;;;;;;;;;;;5068086;28;20093;-74
2024/02/21 05:34:04;;;;;;;;;;;;;;;;;;5078520;28;19915;-72
2024/02/21 05:36:30;;;;;;;;;;;;;;;;;;5066989;28;19928;-75
2024/02/21 05:38:55;;;;;;;;;;;;;;;;;;5099361;28;20359;-74
2024/02/21 05:41:20;;;;;;;;;;;;;;;;;;5101597;28;19916;-74
2024/02/21 05:43:49;;;;;;;;;;;;;;;;;;5082032;28;19920;-75
2024/02/21 05:46:14;;;;;;;;;;;;;;;;;;5084658;28;20003;-76
2024/02/21 05:48:39;;;;;;;;;;;;;;;;;;5084297;28;20011;-75
2024/02/21 05:51:05;;;;;;;;;;;;;;;;;;5100277;28;20355;-75
2024/02/21 05:53:30;;;;;;;;;;;;;;;;;;5085380;28;19975;-74
2024/02/21 05:55:57;;;;;;;;;;;;;;;;;;5078148;28;19927;-75
2024/02/21 05:58:22;;;;;;;;;;;;;;;;;;5079059;28;19919;-73
2024/02/21 06:00:50;;;;;;;;;;;;;;;;;;5097808;28;20276;-74
2024/02/21 06:03:16;;;;;;;;;;;;;;;;;;5078861;28;19935;-75
2024/02/21 06:05:41;;;;;;;;;;;;;;;;;;5080968;28;20408;-74
2024/02/21 06:08:07;;;;;;;;;;;;;;;;;;5065390;28;20050;-76
2024/02/21 06:10:33;;;;;;;;;;;;;;;;;;5080701;28;20249;-74
2024/02/21 06:12:58;;;;;;;;;;;;;;;;;;5074446;28;20069;-74
2024/02/21 06:15:23;;;;;;;;;;;;;;;;;;5090523;28;20385;-74
2024/02/21 06:17:48;;;;;;;;;;;;;;;;;;5087637;28;19920;-74
2024/02/21 06:20:14;;;;;;;;;;;;;;;;;;5089794;28;19955;-75
2024/02/21 06:22:39;;;;;;;;;;;;;;;;;;5090824;28;20283;-76
2024/02/21 06:25:04;;;;;;;;;;;;;;;;;;5072149;28;20145;-74
2024/02/21 06:27:30;;;;;;;;;;;;;;;;;;5090181;28;20006;-74
2024/02/21 06:29:55;;;;;;;;;;;;;;;;;;5070473;28;19926;-75
2024/02/21 06:32:20;;;;;;;;;;;;;;;;;;5073075;28;19969;-75
2024/02/21 06:34:47;;;;;;;;;;;;;;;;;;5086932;28;19971;-76
2024/02/21 06:37:12;;;;;;;;;;;;;;;;;;5070599;28;19924;-74
2024/02/21 06:39:40;;;;;;;;;;;;;;;;;;5088016;28;20299;-74
2024/02/21 06:42:06;;;;;;;;;;;;;;;;;;5070515;28;19920;-74
2024/02/21 06:44:32;;;;;;;;;;;;;;;;;;5070684;28;20268;-76
2024/02/21 06:46:58;;;;;;;;;;;;;;;;;;5087812;28;20017;-75
2024/02/21 06:49:26;;;;;;;;;;;;;;;;;;5089789;28;20011;-74
2024/02/21 06:51:52;;;;;;;;;;;;;;;;;;5088181;28;20377;-75
2024/02/21 06:54:17;;;;;;;;;;;;;;;;;;5055667;28;19920;-74
2024/02/21 06:56:42;;;;;;;;;;;;;;;;;;5070283;28;19934;-75
2024/02/21 06:59:08;;;;;;;;;;;;;;;;;;5087998;28;19959;-75
2024/02/21 07:01:33;;;;;;;;;;;;;;;;;;5071934;28;19990;-74
2024/02/21 07:04:01;;;;;;;;;;;;;;;;;;5088530;28;19923;-74
2024/02/21 07:06:27;;;;;;;;;;;;;;;;;;5089744;28;20355;-77
2024/02/21 07:08:52;;;;;;;;;;;;;;;;;;5087305;28;19920;-74
2024/02/21 07:11:17;;;;;;;;;;;;;;;;;;5074271;28;19916;-74
2024/02/21 07:13:45;;;;;;;;;;;;;;;;;;5088441;28;19920;-75
2024/02/21 07:16:11;;;;;;;;;;;;;;;;;;5087830;28;19939;-74
2024/02/21 07:18:36;;;;;;;;;;;;;;;;;;5088384;28;20380;-75
2024/02/21 07:21:02;;;;;;;;;;;;;;;;;;5069103;28;19974;-76
2024/02/21 07:23:27;;;;;;;;;;;;;;;;;;5071704;28;19969;-76
2024/02/21 07:25:52;;;;;;;;;;;;;;;;;;5088545;28;19955;-77
2024/02/21 07:28:18;;;;;;;;;;;;;;;;;;5086977;28;20030;-75
2024/02/21 07:30:46;;;;;;;;;;;;;;;;;;5071596;28;19951;-75
2024/02/21 07:33:11;;;;;;;;;;;;;;;;;;5071388;28;20011;-74
2024/02/21 07:35:41;;;;;;;;;;;;;;;;;;5072406;28;19920;-74
2024/02/21 07:38:08;;;;;;;;;;;;;;;;;;5068045;28;19920;-75
2024/02/21 07:40:33;;;;;;;;;;;;;;;;;;5071659;28;20002;-74
2024/02/21 07:42:58;;;;;;;;;;;;;;;;;;5071904;28;19916;-75
2024/02/21 07:45:26;;;;;;;;;;;;;;;;;;5069910;28;19920;-74
2024/02/21 07:47:51;;;;;;;;;;;;;;;;;;5088284;28;20422;-75
2024/02/21 07:50:18;;;;;;;;;;;;;;;;;;5068614;28;19926;-75
2024/02/21 07:52:43;;;;;;;;;;;;;;;;;;5087640;28;19920;-75
2024/02/21 07:55:10;;;;;;;;;;;;;;;;;;5072994;28;19927;-74
2024/02/21 07:57:35;;;;;;;;;;;;;;;;;;5088582;28;19924;-76
2024/02/21 08:00:01;;;;;;;;;;;;;;;;;;5087376;28;19916;-73
2024/02/21 08:02:26;;;;;;;;;;;;;;;;;;5055613;28;19916;-76
2024/02/21 08:04:54;;;;;;;;;;;;;;;;;;5073693;28;20015;-75
2024/02/21 08:07:20;;;;;;;;;;;;;;;;;;5072374;28;20274;-75
2024/02/21 08:09:45;;;;;;;;;;;;;;;;;;5072767;28;19927;-74
2024/02/21 08:12:10;;;;;;;;;;;;;;;;;;5091754;28;20006;-75
2024/02/21 08:14:35;;;;;;;;;;;;;;;;;;5094365;28;19919;-75
2024/02/21 08:23:34;;;;;;;;;;;;;;;;;;5092777;28;19922;-77
2024/02/21 08:26:00;;;;;;;;;;;;;;;;;;5073809;28;20022;-77
2024/02/21 08:28:25;;;;;;;;;;;;;;;;;;5090585;28;19920;-76
2024/02/21 08:30:53;;;;;;;;;;;;;;;;;;5091525;28;19920;-76
2024/02/21 08:33:18;;;;;;;;;;;;;;;;;;5075239;28;20379;-76
2024/02/21 08:35:44;;;;;;;;;;;;;;;;;;5092315;28;19930;-77
2024/02/21 08:38:09;;;;;;;;;;;;;;;;;;5075942;28;20177;-76
2024/02/21 08:40:35;;;;;;;;;;;;;;;;;;5089836;28;19927;-76
2024/02/21 08:43:00;;;;;;;;;;;;;;;;;;5092232;28;20501;-76
2024/02/21 08:45:25;;;;;;;;;;;;;;;;;;5092664;28;19943;-76
2024/02/21 08:47:51;;;;;;;;;;;;;;;;;;5075440;28;19950;-76
2024/02/21 08:50:16;;;;;;;;;;;;;;;;;;5074882;28;19923;-76
2024/02/21 08:52:42;;;;;;;;;;;;;;;;;;5089437;28;19919;-76
2024/02/21 08:55:09;;;;;;;;;;;;;;;;;;5092145;28;19919;-75
2024/02/21 08:57:36;;;;;;;;;;;;;;;;;;5072339;28;19959;-76
2024/02/21 09:00:09;;;;;;;;;;;;;;;;;;5092466;28;19920;-74
2024/02/21 09:02:34;;;;;;;;;;;;;;;;;;5075867;28;19916;-74
2024/02/21 09:05:00;;;;;;;;;;;;;;;;;;5058696;28;19983;-75
2024/02/21 09:07:25;;;;;;;;;;;;;;;;;;5075837;28;20030;-74
2024/02/21 09:09:50;;;;;;;;;;;;;;;;;;5090133;28;19915;-75
2024/02/21 09:12:15;;;;;;;;;;;;;;;;;;5089411;28;19961;-75
2024/02/21 09:14:41;;;;;;;;;;;;;;;;;;5074982;28;20038;-76
2024/02/21 09:17:06;;;;;;;;;;;;;;;;;;5074490;28;20302;-75
2024/02/21 09:19:31;;;;;;;;;;;;;;;;;;5089544;28;20291;-74
2024/02/21 09:21:56;;;;;;;;;;;;;;;;;;5089894;28;20011;-75
2024/02/21 09:24:27;;;;;;;;;;;;;;;;;;5087579;28;20869;-75
2024/02/21 09:26:52;;;;;;;;;;;;;;;;;;5090207;28;20294;-74
2024/02/21 09:29:18;;;;;;;;;;;;;;;;;;5069713;28;20001;-73
2024/02/21 09:31:43;;;;;;;;;;;;;;;;;;5089626;28;19968;-74
2024/02/21 09:34:09;;;;;;;;;;;;;;;;;;5089346;28;19923;-74
2024/02/21 09:36:36;;;;;;;;;;;;;;;;;;5071176;28;21414;-74
2024/02/21 09:39:07;;;;;;;;;;;;;;;;;;5073962;28;20978;-73
2024/02/21 09:41:33;;;;;;;;;;;;;;;;;;5089442;28;19919;-73
2024/02/21 09:43:58;;;;;;;;;;;;;;;;;;5070901;28;19920;-73
2024/02/21 09:46:23;;;;;;;;;;;;;;;;;;5089431;28;20384;-72
2024/02/21 09:48:49;;;;;;;;;;;;;;;;;;5090464;28;19973;-71
2024/02/21 09:51:14;;;;;;;;;;;;;;;;;;5090935;28;19924;-72
2024/02/21 09:53:39;;;;;;;;;;;;;;;;;;5071082;28;20155;-71
2024/02/21 09:56:10;;;;;;;;;;;;;;;;;;5075650;28;19964;-72
2024/02/21 09:58:35;;;;;;;;;;;;;;;;;;5071906;28;19924;-72
2024/02/21 10:01:01;;;;;;;;;;;;;;;;;;5071907;28;19970;-72
2024/02/21 10:03:26;;;;;;;;;;;;;;;;;;5072582;28;20931;-70
2024/02/21 10:05:54;;;;;;;;;;;;;;;;;;5089647;28;19919;-72
2024/02/21 10:08:19;;;;;;;;;;;;;;;;;;5057511;28;19924;-72
2024/02/21 10:10:44;;;;;;;;;;;;;;;;;;5073438;28;20007;-69
2024/02/21 10:13:10;;;;;;;;;;;;;;;;;;5073694;28;19955;-72
2024/02/21 10:15:35;;;;;;;;;;;;;;;;;;5074395;28;19920;-71
2024/02/21 10:18:01;;;;;;;;;;;;;;;;;;5088494;28;20667;-71
2024/02/21 10:20:27;;;;;;;;;;;;;;;;;;5071335;28;19919;-71
2024/02/21 10:22:54;;;;;;;;;;;;;;;;;;5087501;28;19965;-70
2024/02/21 10:25:20;;;;;;;;;;;;;;;;;;5071752;28;20275;-70
2024/02/21 10:27:48;;;;;;;;;;;;;;;;;;5084432;28;19916;-70
2024/02/21 10:30:13;;;;;;;;;;;;;;;;;;5072456;28;19938;-70
2024/02/21 10:32:39;;;;;;;;;;;;;;;;;;5072546;28;20559;-70
2024/02/21 10:35:08;;;;;;;;;;;;;;;;;;5088516;28;19916;-70
2024/02/21 10:37:34;;;;;;;;;;;;;;;;;;5088706;28;19920;-70
2024/02/21 10:39:59;;;;;;;;;;;;;;;;;;5071931;28;20411;-71
2024/02/21 10:42:24;;;;;;;;;;;;;;;;;;5086473;28;19988;-70
2024/02/21 10:44:51;;;;;;;;;;;;;;;;;;5089368;28;21687;-69
2024/02/21 10:47:21;;;;;;;;;;;;;;;;;;5073640;28;19916;-71
2024/02/21 10:49:48;;;;;;;;;;;;;;;;;;5086760;28;20343;-69
2024/02/21 10:52:14;;;;;;;;;;;;;;;;;;5088905;28;19913;-70
2024/02/21 10:54:40;;;;;;;;;;;;;;;;;;5073596;28;19958;-70
2024/02/21 10:57:05;;;;;;;;;;;;;;;;;;5072005;28;19968;-70
2024/02/21 10:59:32;;;;;;;;;;;;;;;;;;5086707;28;19978;-70
2024/02/21 11:02:00;;;;;;;;;;;;;;;;;;5088747;28;19927;-69
2024/02/21 11:04:28;;;;;;;;;;;;;;;;;;5070334;28;19920;-69
2024/02/21 11:06:55;;;;;;;;;;;;;;;;;;5073397;28;20834;-71
2024/02/21 11:09:24;;;;;;;;;;;;;;;;;;5072884;28;19916;-71
2024/02/21 11:11:52;;;;;;;;;;;;;;;;;;5087125;28;20356;-71
2024/02/21 11:14:20;;;;;;;;;;;;;;;;;;5070388;28;19949;-70
2024/02/21 11:16:45;;;;;;;;;;;;;;;;;;5088375;28;19922;-70
2024/02/21 11:19:11;;;;;;;;;;;;;;;;;;5068643;28;19916;-69
2024/02/21 11:21:36;;;;;;;;;;;;;;;;;;5087012;28;19919;-69
2024/02/21 11:24:02;;;;;;;;;;;;;;;;;;5088495;28;20378;-69
2024/02/21 11:26:32;;;;;;;;;;;;;;;;;;5087097;28;19927;-69
2024/02/21 11:28:57;;;;;;;;;;;;;;;;;;5073990;28;19920;-69
2024/02/21 11:31:22;;;;;;;;;;;;;;;;;;5071116;28;19922;-69
2024/02/21 11:33:48;;;;;;;;;;;;;;;;;;5086197;28;19927;-68
2024/02/21 11:36:15;;;;;;;;;;;;;;;;;;5088594;28;20106;-69
2024/02/21 11:38:40;;;;;;;;;;;;;;;;;;5055841;28;21403;-69
2024/02/21 11:41:06;;;;;;;;;;;;;;;;;;5089923;28;19920;-68
2024/02/21 11:43:34;;;;;;;;;;;;;;;;;;5070131;28;19916;-71
2024/02/21 11:46:01;;;;;;;;;;;;;;;;;;5070225;28;20415;-70
2024/02/21 11:48:26;;;;;;;;;;;;;;;;;;5069141;28;19973;-68
2024/02/21 11:50:51;;;;;;;;;;;;;;;;;;5073962;28;19920;-69
2024/02/21 11:53:19;;;;;;;;;;;;;;;;;;5087680;28;19920;-70
2024/02/21 11:55:44;;;;;;;;;;;;;;;;;;5086286;28;20407;-68
2024/02/21 11:58:10;;;;;;;;;;;;;;;;;;5068065;28;20017;-68
2024/02/21 12:00:35;;;;;;;;;;;;;;;;;;5087719;28;20018;-68
2024/02/21 12:03:01;;;;;;;;;;;;;;;;;;5070304;28;19916;-69
2024/02/21 12:05:30;;;;;;;;;;;;;;;;;;5085361;28;19927;-69
2024/02/21 12:07:55;;;;;;;;;;;;;;;;;;5087400;28;19931;-69
2024/02/21 12:10:20;;;;;;;;;;;;;;;;;;5069147;28;19915;-69
2024/02/21 12:12:48;;;;;;;;;;;;;;;;;;5089013;28;20014;-69
2024/02/21 12:15:13;;;;;;;;;;;;;;;;;;5071181;28;19923;-69
2024/02/21 12:17:41;;;;;;;;;;;;;;;;;;5088409;28;20429;-69
2024/02/21 12:20:11;;;;;;;;;;;;;;;;;;5087161;28;20642;-70
2024/02/21 12:22:36;;;;;;;;;;;;;;;;;;5069953;28;19962;-70
2024/02/21 12:25:01;;;;;;;;;;;;;;;;;;5071087;28;19998;-70
2024/02/21 12:27:27;;;;;;;;;;;;;;;;;;5088105;28;20187;-70
2024/02/21 12:29:55;;;;;;;;;;;;;;;;;;5073339;28;20495;-70
2024/02/21 12:32:20;;;;;;;;;;;;;;;;;;5087193;28;20036;-69
2024/02/21 12:34:46;;;;;;;;;;;;;;;;;;5068066;28;19920;-69
2024/02/21 12:37:15;;;;;;;;;;;;;;;;;;5052912;28;19931;-69
2024/02/21 12:39:44;;;;;;;;;;;;;;;;;;5054844;28;19926;-69
2024/02/21 12:42:11;;;;;;;;;;;;;;;;;;5054313;28;19915;-69
2024/02/21 12:44:36;;;;;;;;;;;;;;;;;;5086020;28;20367;-68
2024/02/21 12:47:02;;;;;;;;;;;;;;;;;;5054771;28;19946;-68
2024/02/21 12:49:29;;;;;;;;;;;;;;;;;;5067685;28;19924;-69
2024/02/21 12:51:57;;;;;;;;;;;;;;;;;;5074249;28;19919;-69
2024/02/21 12:54:24;;;;;;;;;;;;;;;;;;5068431;28;19923;-69
2024/02/21 12:56:49;;;;;;;;;;;;;;;;;;5071236;28;19926;-68
2024/02/21 12:59:15;;;;;;;;;;;;;;;;;;5074983;28;19927;-68
2024/02/21 13:01:40;;;;;;;;;;;;;;;;;;5075121;28;19926;-69
2024/02/21 13:04:05;;;;;;;;;;;;;;;;;;5058035;28;19922;-70
2024/02/21 13:06:31;;;;;;;;;;;;;;;;;;5075873;28;19916;-69
2024/02/21 13:08:56;;;;;;;;;;;;;;;;;;5074757;28;19926;-68
2024/02/21 13:11:26;;;;;;;;;;;;;;;;;;5074486;28;20471;-69
2024/02/21 13:13:52;;;;;;;;;;;;;;;;;;5089513;28;20010;-69
2024/02/21 13:16:18;;;;;;;;;;;;;;;;;;5061285;28;19920;-70
2024/02/21 13:18:44;;;;;;;;;;;;;;;;;;5075439;28;19980;-71
2024/02/21 13:21:12;;;;;;;;;;;;;;;;;;5071338;28;20002;-67
2024/02/21 13:23:40;;;;;;;;;;;;;;;;;;5089234;28;19916;-69
2024/02/21 13:26:05;;;;;;;;;;;;;;;;;;5073183;28;19928;-70
2024/02/21 13:28:30;;;;;;;;;;;;;;;;;;5073843;28;19916;-70
2024/02/21 13:30:57;;;;;;;;;;;;;;;;;;5073864;28;20731;-69
2024/02/21 13:33:22;;;;;;;;;;;;;;;;;;5090767;28;20429;-70
2024/02/21 13:35:48;;;;;;;;;;;;;;;;;;5072581;28;19926;-69
2024/02/21 13:38:32;;;;;;;;;;;;;;;;;;5075967;28;19920;-69
2024/02/21 13:41:00;;;;;;;;;;;;;;;;;;5090099;28;19924;-70
2024/02/21 13:43:25;;;;;;;;;;;;;;;;;;5089135;28;21512;-69
2024/02/21 13:45:50;;;;;;;;;;;;;;;;;;5088555;27;20359;-69
2024/02/21 13:48:19;;;;;;;;;;;;;;;;;;5088215;28;20393;-70
2024/02/21 13:50:44;;;;;;;;;;;;;;;;;;5072179;28;19916;-70
2024/02/21 13:53:12;;;;;;;;;;;;;;;;;;5089505;28;19916;-68
2024/02/21 13:55:40;;;;;;;;;;;;;;;;;;5072154;28;20750;-70
2024/02/21 13:58:06;;;;;;;;;;;;;;;;;;5071722;28;20042;-72
2024/02/21 14:00:34;;;;;;;;;;;;;;;;;;5071095;28;20252;-70
2024/02/21 14:03:00;;;;;;;;;;;;;;;;;;5072144;28;19920;-69
2024/02/21 14:05:26;;;;;;;;;;;;;;;;;;5088719;28;19920;-70
2024/02/21 14:07:54;;;;;;;;;;;;;;;;;;5089163;28;20360;-69
2024/02/21 14:10:19;;;;;;;;;;;;;;;;;;5071743;28;19916;-70
2024/02/21 14:12:45;;;;;;;;;;;;;;;;;;5058500;28;19920;-69
2024/02/21 14:15:10;;;;;;;;;;;;;;;;;;5088850;28;19916;-70
2024/02/21 14:17:35;;;;;;;;;;;;;;;;;;5072971;28;20394;-71
2024/02/21 14:20:03;;;;;;;;;;;;;;;;;;5070732;28;19916;-70
2024/02/21 14:22:29;;;;;;;;;;;;;;;;;;5087034;28;19927;-70
2024/02/21 14:24:54;;;;;;;;;;;;;;;;;;5090038;28;20031;-69
2024/02/21 14:27:19;;;;;;;;;;;;;;;;;;5072976;28;19920;-71
2024/02/21 14:29:45;;;;;;;;;;;;;;;;;;5089225;28;19956;-69
2024/02/21 14:32:10;;;;;;;;;;;;;;;;;;5088365;28;19924;-70
2024/02/21 14:34:41;;;;;;;;;;;;;;;;;;5074468;28;19920;-69
2024/02/21 14:37:06;;;;;;;;;;;;;;;;;;5089859;28;19927;-70
2024/02/21 14:39:34;;;;;;;;;;;;;;;;;;5072279;28;19924;-69
2024/02/21 14:42:17;;;;;;;;;;;;;;;;;;5087061;28;19923;-70
2024/02/21 14:44:43;;;;;;;;;;;;;;;;;;5087141;28;20394;-70
2024/02/21 14:47:08;;;;;;;;;;;;;;;;;;5073090;28;20039;-70
2024/02/21 14:49:34;;;;;;;;;;;;;;;;;;5088609;28;19920;-71
2024/02/21 14:51:59;;;;;;;;;;;;;;;;;;5088181;28;20547;-70
2024/02/21 14:54:24;;;;;;;;;;;;;;;;;;5088701;28;19922;-70
2024/02/21 14:56:52;;;;;;;;;;;;;;;;;;5074661;28;19945;-69
2024/02/21 14:59:19;;;;;;;;;;;;;;;;;;5086559;28;19923;-70
2024/02/21 15:01:48;;;;;;;;;;;;;;;;;;5071648;28;19920;-72
2024/02/21 15:04:16;;;;;;;;;;;;;;;;;;5087789;28;20435;-70
2024/02/21 15:06:41;;;;;;;;;;;;;;;;;;5072942;28;19920;-70
2024/02/21 15:09:07;;;;;;;;;;;;;;;;;;5088915;28;20052;-70
2024/02/21 15:11:32;;;;;;;;;;;;;;;;;;5073693;28;19919;-68
2024/02/21 15:13:57;;;;;;;;;;;;;;;;;;5071993;28;20375;-71
2024/02/21 15:16:23;;;;;;;;;;;;;;;;;;5070770;28;19927;-69
2024/02/21 15:18:50;;;;;;;;;;;;;;;;;;5072907;28;19922;-69
2024/02/21 15:21:15;;;;;;;;;;;;;;;;;;5071957;28;19916;-69
2024/02/21 15:23:40;;;;;;;;;;;;;;;;;;5090455;28;19958;-69
2024/02/21 15:26:06;;;;;;;;;;;;;;;;;;5069748;28;20009;-70
2024/02/21 15:28:31;;;;;;;;;;;;;;;;;;5088298;28;19947;-69
2024/02/21 15:30:57;;;;;;;;;;;;;;;;;;5072299;28;19916;-69
2024/02/21 15:33:25;;;;;;;;;;;;;;;;;;5088937;28;20309;-70
2024/02/21 15:35:51;;;;;;;;;;;;;;;;;;5088479;28;19938;-71
2024/02/21 15:38:21;;;;;;;;;;;;;;;;;;5072822;28;20681;-70
2024/02/21 15:40:46;;;;;;;;;;;;;;;;;;5088166;28;19959;-68
2024/02/21 15:43:11;;;;;;;;;;;;;;;;;;5085994;28;20438;-68
2024/02/21 15:45:39;;;;;;;;;;;;;;;;;;5070800;28;21481;-69
2024/02/21 15:48:10;;;;;;;;;;;;;;;;;;5069800;28;19971;-70
2024/02/21 15:50:35;;;;;;;;;;;;;;;;;;5071749;28;19916;-69
2024/02/21 15:53:01;;;;;;;;;;;;;;;;;;5086274;28;19920;-70
2024/02/21 15:55:29;;;;;;;;;;;;;;;;;;5087127;28;20387;-69
2024/02/21 15:57:57;;;;;;;;;;;;;;;;;;5088106;28;19935;-69
2024/02/21 16:00:22;;;;;;;;;;;;;;;;;;5087296;28;20071;-68
2024/02/21 16:02:47;;;;;;;;;;;;;;;;;;5086182;28;19920;-68
2024/02/21 16:05:16;;;;;;;;;;;;;;;;;;5086651;28;19926;-67
2024/02/21 16:10:59;;;;;;;;;;;;;;;;;;5087344;28;19926;-70
2024/02/21 16:13:27;;;;;;;;;;;;;;;;;;5055113;28;19916;-68
2024/02/21 16:15:53;;;;;;;;;;;;;;;;;;5086779;28;19916;-68
2024/02/21 16:18:20;;;;;;;;;;;;;;;;;;5055879;28;19975;-69
2024/02/21 16:20:48;;;;;;;;;;;;;;;;;;5090267;28;19919;-70
2024/02/21 16:23:14;;;;;;;;;;;;;;;;;;5072853;28;20371;-69
2024/02/21 16:25:39;;;;;;;;;;;;;;;;;;5068101;28;19955;-69
2024/02/21 16:28:08;;;;;;;;;;;;;;;;;;5071957;28;19919;-68
2024/02/21 16:30:33;;;;;;;;;;;;;;;;;;5073002;28;19915;-68
2024/02/21 16:32:59;;;;;;;;;;;;;;;;;;5092163;28;19923;-70
2024/02/21 16:35:27;;;;;;;;;;;;;;;;;;5059713;28;20306;-68
2024/02/21 16:37:54;;;;;;;;;;;;;;;;;;5073908;28;19927;-70
2024/02/21 16:40:19;;;;;;;;;;;;;;;;;;5069962;28;19955;-69
2024/02/21 16:42:44;;;;;;;;;;;;;;;;;;5067859;28;20012;-68
2024/02/21 16:45:10;;;;;;;;;;;;;;;;;;5072153;28;20066;-68
2024/02/21 16:47:37;;;;;;;;;;;;;;;;;;5069777;28;19920;-69
2024/02/21 16:50:04;;;;;;;;;;;;;;;;;;5070654;28;19921;-68